createdAt,value
2023-04-01T00:02:03.537Z,55.93
2023-04-01T00:04:31.421Z,56.40
2023-04-01T00:06:59.530Z,55.96
2023-04-01T00:09:29.977Z,56.53
2023-04-01T00:11:57.812Z,56.32
2023-04-01T00:14:26.815Z,56.69
2023-04-01T00:16:54.672Z,56.82
2023-04-01T00:19:22.381Z,56.84
2023-04-01T00:21:50.037Z,56.45
2023-04-01T00:24:18.387Z,56.93
2023-04-01T00:26:46.050Z,57.00
2023-04-01T00:29:13.703Z,57.00
2023-04-01T00:31:42.783Z,57.32
2023-04-01T00:34:10.409Z,57.09
2023-04-01T00:36:38.109Z,57.14
2023-04-01T00:39:05.782Z,57.21
2023-04-01T00:41:33.457Z,57.63
2023-04-01T00:44:19.114Z,57.73
2023-04-01T00:46:48.488Z,57.73
2023-04-01T00:49:19.432Z,57.71
2023-04-01T00:51:49.071Z,57.74
2023-04-01T00:54:20.294Z,57.68
2023-04-01T00:56:51.307Z,58.07
2023-04-01T00:59:24.086Z,58.18
2023-04-01T01:01:53.144Z,57.95
2023-04-01T01:04:24.700Z,58.19
2023-04-01T01:07:00.252Z,58.15
2023-04-01T01:09:36.375Z,58.37
2023-04-01T01:12:09.701Z,58.50
2023-04-01T01:14:54.874Z,58.22
2023-04-01T01:17:32.500Z,58.43
2023-04-01T01:20:26.456Z,58.52
2023-04-01T01:23:12.046Z,58.69
2023-04-01T01:25:49.637Z,58.72
2023-04-01T01:28:34.406Z,58.98
2023-04-01T01:31:14.134Z,59.00
2023-04-01T01:33:59.583Z,58.84
2023-04-01T01:36:35.478Z,58.92
2023-04-01T01:39:04.894Z,58.86
2023-04-01T01:41:34.345Z,59.10
2023-04-01T01:44:04.588Z,58.86
2023-04-01T01:46:33.276Z,58.93
2023-04-01T01:49:02.256Z,59.04
2023-04-01T01:51:31.786Z,59.16
2023-04-01T01:53:59.426Z,59.20
2023-04-01T01:56:30.087Z,58.97
2023-04-01T01:59:03.303Z,59.07
2023-04-01T02:01:36.154Z,59.17
2023-04-01T02:04:05.261Z,59.25
2023-04-01T02:06:39.353Z,59.38
2023-04-01T02:09:11.548Z,59.27
2023-04-01T02:11:44.983Z,59.51
2023-04-01T02:14:16.530Z,59.39
2023-04-01T02:16:49.742Z,59.39
2023-04-01T02:19:23.435Z,59.75
2023-04-01T02:21:57.312Z,59.62
2023-04-01T02:24:28.490Z,59.77
2023-04-01T02:26:56.094Z,59.46
2023-04-01T02:29:26.563Z,59.74
2023-04-01T02:31:55.683Z,59.51
2023-04-01T02:34:25.341Z,59.91
2023-04-01T02:36:55.705Z,59.78
2023-04-01T02:39:23.585Z,60.19
2023-04-01T02:41:51.302Z,59.84
2023-04-01T02:44:18.972Z,59.78
2023-04-01T02:46:46.702Z,59.70
2023-04-01T02:49:14.394Z,59.96
2023-04-01T02:51:42.035Z,60.14
2023-04-01T02:54:11.045Z,59.65
2023-04-01T02:56:38.641Z,60.06
2023-04-01T02:59:06.513Z,59.91
2023-04-01T03:01:34.253Z,59.86
2023-04-01T03:04:01.944Z,59.97
2023-04-01T03:06:29.564Z,59.79
2023-04-01T03:08:57.194Z,60.08
2023-04-01T03:11:27.122Z,60.04
2023-04-01T03:13:54.743Z,60.04
2023-04-01T03:16:22.423Z,60.17
2023-04-01T03:18:53.400Z,59.96
2023-04-01T03:21:23.651Z,60.13
2023-04-01T03:23:51.677Z,60.23
2023-04-01T03:26:19.881Z,60.15
2023-04-01T03:28:49.545Z,60.32
2023-04-01T03:31:17.779Z,60.24
2023-04-01T03:33:45.640Z,60.30
2023-04-01T03:36:13.713Z,60.17
2023-04-01T03:38:43.163Z,60.34
2023-04-01T03:41:14.468Z,60.49
2023-04-01T03:43:42.194Z,60.53
2023-04-01T03:46:11.470Z,60.42
2023-04-01T03:48:39.270Z,60.24
2023-04-01T03:51:08.935Z,60.31
2023-04-01T03:53:36.560Z,60.08
2023-04-01T03:56:06.350Z,60.26
2023-04-01T03:58:33.991Z,60.35
2023-04-01T04:01:01.578Z,60.55
2023-04-01T04:03:31.022Z,60.36
2023-04-01T04:05:58.826Z,60.71
2023-04-01T04:08:26.566Z,60.68
2023-04-01T04:10:57.651Z,60.44
2023-04-01T04:13:25.323Z,60.36
2023-04-01T04:15:52.910Z,60.38
2023-04-01T04:18:20.518Z,60.58
2023-04-01T04:20:51.935Z,60.68
2023-04-01T04:23:20.324Z,60.36
2023-04-01T04:25:55.940Z,60.45
2023-04-01T04:28:23.608Z,60.79
2023-04-01T04:30:51.450Z,60.57
2023-04-01T04:33:19.101Z,60.68
2023-04-01T04:35:46.733Z,60.70
2023-04-01T04:38:15.753Z,60.63
2023-04-01T04:40:44.262Z,61.00
2023-04-01T04:43:13.131Z,60.71
2023-04-01T04:45:40.838Z,60.69
2023-04-01T04:48:10.079Z,60.69
2023-04-01T04:50:38.027Z,60.43
2023-04-01T04:53:05.633Z,60.70
2023-04-01T04:55:34.841Z,60.65
2023-04-01T04:58:02.722Z,60.67
2023-04-01T05:00:30.340Z,60.70
2023-04-01T05:02:58.082Z,60.72
2023-04-01T05:05:25.757Z,61.03
2023-04-01T05:07:53.391Z,60.63
2023-04-01T05:10:21.634Z,60.73
2023-04-01T05:12:50.840Z,60.82
2023-04-01T05:15:18.673Z,60.71
2023-04-01T05:17:46.338Z,60.76
2023-04-01T05:20:14.485Z,60.84
2023-04-01T05:22:42.426Z,60.81
2023-04-01T05:25:10.522Z,60.79
2023-04-01T05:27:38.610Z,60.65
2023-04-01T05:30:09.087Z,60.81
2023-04-01T05:32:36.747Z,60.52
2023-04-01T05:35:04.871Z,60.60
2023-04-01T05:37:32.763Z,60.86
2023-04-01T05:40:00.650Z,60.93
2023-04-01T05:42:28.310Z,60.83
2023-04-01T05:44:56.640Z,60.89
2023-04-01T05:47:25.753Z,61.13
2023-04-01T05:49:53.352Z,61.00
2023-04-01T05:52:20.952Z,60.80
2023-04-01T05:54:48.551Z,60.97
2023-04-01T05:57:16.270Z,60.90
2023-04-01T05:59:43.968Z,61.07
2023-04-01T06:02:12.286Z,61.12
2023-04-01T06:04:42.251Z,61.18
2023-04-01T06:07:14.137Z,61.07
2023-04-01T06:09:41.930Z,61.07
2023-04-01T06:12:43.115Z,61.35
2023-04-01T06:15:27.287Z,61.06
2023-04-01T06:18:33.856Z,61.24
2023-04-01T06:21:17.862Z,61.00
2023-04-01T06:24:02.982Z,61.06
2023-04-01T06:26:38.057Z,61.24
2023-04-01T06:29:32.028Z,60.95
2023-04-01T06:32:18.041Z,60.93
2023-04-01T06:35:01.134Z,61.19
2023-04-01T06:37:49.265Z,60.99
2023-04-01T06:40:47.697Z,60.98
2023-04-01T06:43:23.127Z,61.29
2023-04-01T06:45:57.317Z,61.40
2023-04-01T06:48:39.460Z,61.09
2023-04-01T06:51:21.951Z,61.27
2023-04-01T06:53:58.837Z,61.52
2023-04-01T06:56:29.865Z,61.35
2023-04-01T06:59:02.105Z,61.38
2023-04-01T07:01:34.338Z,61.35
2023-04-01T07:04:07.390Z,61.21
2023-04-01T07:06:45.877Z,61.23
2023-04-01T07:09:18.504Z,61.45
2023-04-01T07:11:47.280Z,61.39
2023-04-01T07:14:21.451Z,61.33
2023-04-01T07:16:54.443Z,61.43
2023-04-01T07:19:27.815Z,61.44
2023-04-01T07:21:59.510Z,61.43
2023-04-01T07:24:33.964Z,61.40
2023-04-01T07:27:02.634Z,61.49
2023-04-01T07:29:30.318Z,61.55
2023-04-01T07:32:17.320Z,61.41
2023-04-01T07:34:57.071Z,61.26
2023-04-01T07:37:31.197Z,61.13
2023-04-01T07:40:12.961Z,61.55
2023-04-01T07:42:52.011Z,61.47
2023-04-01T07:45:27.146Z,61.42
2023-04-01T07:48:08.941Z,61.32
2023-04-01T07:50:43.184Z,61.58
2023-04-01T07:53:18.239Z,61.74
2023-04-01T07:55:53.843Z,61.58
2023-04-01T07:58:32.644Z,61.67
2023-04-01T08:01:09.120Z,61.71
2023-04-01T08:03:56.540Z,61.62
2023-04-01T08:06:31.514Z,61.90
2023-04-01T08:09:07.172Z,61.21
2023-04-01T08:11:49.217Z,61.36
2023-04-01T08:14:26.313Z,61.31
2023-04-01T08:17:01.568Z,61.84
2023-04-01T08:19:40.354Z,61.91
2023-04-01T08:22:14.383Z,61.67
2023-04-01T08:24:48.147Z,61.26
2023-04-01T08:27:23.641Z,61.72
2023-04-01T08:29:58.070Z,61.71
2023-04-01T08:32:30.574Z,61.72
2023-04-01T08:35:09.648Z,61.49
2023-04-01T08:37:42.194Z,61.95
2023-04-01T08:40:29.723Z,61.48
2023-04-01T08:43:11.428Z,61.88
2023-04-01T08:45:56.250Z,61.80
2023-04-01T08:49:02.061Z,61.64
2023-04-01T08:52:00.378Z,61.81
2023-04-01T08:54:46.127Z,61.77
2023-04-01T08:57:24.145Z,61.92
2023-04-01T09:00:15.593Z,61.84
2023-04-01T09:03:09.871Z,61.47
2023-04-01T09:06:12.887Z,61.79
2023-04-01T09:08:54.743Z,61.99
2023-04-01T09:11:32.835Z,61.87
2023-04-01T09:14:23.586Z,61.82
2023-04-01T09:17:20.970Z,61.92
2023-04-01T09:20:04.341Z,61.72
2023-04-01T09:22:44.558Z,61.83
2023-04-01T09:25:34.674Z,61.63
2023-04-01T09:28:12.057Z,62.04
2023-04-01T09:31:11.597Z,61.86
2023-04-01T09:34:10.176Z,61.82
2023-04-01T09:36:47.250Z,61.88
2023-04-01T09:39:38.449Z,61.86
2023-04-01T09:42:43.441Z,61.73
2023-04-01T09:45:24.543Z,61.92
2023-04-01T09:48:05.001Z,62.02
2023-04-01T09:50:43.108Z,61.91
2023-04-01T09:53:38.721Z,61.84
2023-04-01T09:56:47.902Z,61.83
2023-04-01T09:59:48.305Z,61.95
2023-04-01T10:03:01.946Z,61.76
2023-04-01T10:06:23.370Z,61.90
2023-04-01T10:09:30.584Z,62.04
2023-04-01T10:12:36.905Z,62.25
2023-04-01T10:15:38.007Z,56.52
2023-04-01T10:18:44.650Z,54.93
2023-04-01T10:21:59.970Z,52.56
2023-04-01T10:25:04.937Z,52.62
2023-04-01T10:27:51.876Z,52.09
2023-04-01T10:30:39.839Z,51.33
2023-04-01T10:33:28.901Z,50.79
2023-04-01T10:36:35.073Z,51.49
2023-04-01T10:39:36.190Z,52.00
2023-04-01T10:42:24.887Z,51.42
2023-04-01T10:45:43.321Z,51.55
2023-04-01T10:48:25.411Z,50.56
2023-04-01T10:51:18.027Z,51.33
2023-04-01T10:54:07.812Z,51.17
2023-04-01T10:56:40.726Z,50.85
2023-04-01T10:59:55.210Z,51.29
2023-04-01T11:03:14.171Z,51.86
2023-04-01T11:06:08.335Z,53.18
2023-04-01T11:09:08.518Z,52.78
2023-04-01T11:12:11.074Z,53.51
2023-04-01T11:15:08.577Z,53.95
2023-04-01T11:18:10.785Z,53.45
2023-04-01T11:21:01.473Z,53.25
2023-04-01T11:23:51.944Z,53.84
2023-04-01T11:26:41.247Z,53.53
2023-04-01T11:29:33.241Z,54.50
2023-04-01T11:32:09.164Z,54.58
2023-04-01T11:34:49.496Z,54.73
2023-04-01T11:37:29.079Z,55.01
2023-04-01T11:40:07.611Z,55.24
2023-04-01T11:42:42.942Z,55.18
2023-04-01T11:45:24.934Z,55.13
2023-04-01T11:48:14.554Z,55.24
2023-04-01T11:51:02.212Z,55.80
2023-04-01T11:53:43.730Z,55.78
2023-04-01T11:56:30.868Z,56.02
2023-04-01T11:59:28.150Z,56.41
2023-04-01T12:02:07.583Z,56.19
2023-04-01T12:05:13.890Z,56.25
2023-04-01T12:08:04.988Z,56.85
2023-04-01T12:10:41.335Z,56.63
2023-04-01T12:13:20.914Z,56.85
2023-04-01T12:16:06.195Z,57.03
2023-04-01T12:18:38.780Z,57.28
2023-04-01T12:21:19.489Z,57.23
2023-04-01T12:24:17.085Z,57.35
2023-04-01T12:27:04.192Z,57.32
2023-04-01T12:29:59.835Z,57.00
2023-04-01T12:32:37.081Z,57.61
2023-04-01T12:35:19.366Z,57.41
2023-04-01T12:37:56.324Z,57.47
2023-04-01T12:40:39.438Z,57.82
2023-04-01T12:43:36.032Z,57.91
2023-04-01T12:46:15.417Z,57.83
2023-04-01T12:49:20.357Z,57.84
2023-04-01T12:52:09.064Z,57.88
2023-04-01T12:55:01.169Z,58.14
2023-04-01T12:57:52.345Z,58.10
2023-04-01T13:00:37.169Z,58.42
2023-04-01T13:03:33.702Z,58.35
2023-04-01T13:06:29.541Z,58.20
2023-04-01T13:09:17.819Z,58.09
2023-04-01T13:12:00.932Z,58.49
2023-04-01T13:14:46.809Z,58.46
2023-04-01T13:17:21.318Z,58.56
2023-04-01T13:20:05.074Z,58.39
2023-04-01T13:22:47.216Z,58.59
2023-04-01T13:25:28.048Z,58.64
2023-04-01T13:28:05.225Z,58.36
2023-04-01T13:30:43.121Z,58.67
2023-04-01T13:33:18.853Z,58.87
2023-04-01T13:35:55.406Z,58.75
2023-04-01T13:38:59.634Z,58.54
2023-04-01T13:41:39.684Z,58.84
2023-04-01T13:44:14.926Z,58.81
2023-04-01T13:47:05.929Z,58.79
2023-04-01T13:49:44.759Z,59.01
2023-04-01T13:52:33.534Z,59.08
2023-04-01T13:55:20.502Z,59.09
2023-04-01T13:58:09.847Z,58.86
2023-04-01T14:00:52.336Z,58.89
2023-04-01T14:03:31.280Z,59.41
2023-04-01T14:06:12.429Z,59.14
2023-04-01T14:08:55.557Z,59.07
2023-04-01T14:11:29.452Z,59.37
2023-04-01T14:14:07.448Z,59.28
2023-04-01T14:16:57.850Z,59.62
2023-04-01T14:19:44.005Z,59.20
2023-04-01T14:22:23.462Z,59.60
2023-04-01T14:25:27.815Z,59.34
2023-04-01T14:28:05.459Z,59.52
2023-04-01T14:30:53.836Z,59.20
2023-04-01T14:33:45.048Z,59.75
2023-04-01T14:36:42.537Z,59.65
2023-04-01T14:39:24.169Z,59.42
2023-04-01T14:42:21.615Z,59.66
2023-04-01T14:45:04.723Z,59.73
2023-04-01T14:47:45.804Z,59.87
2023-04-01T14:50:18.464Z,59.55
2023-04-01T14:52:54.682Z,59.81
2023-04-01T14:55:30.343Z,60.18
2023-04-01T14:58:12.408Z,60.02
2023-04-01T15:01:09.187Z,59.86
2023-04-01T15:03:48.190Z,60.01
2023-04-01T15:06:52.001Z,60.13
2023-04-01T15:09:34.279Z,59.90
2023-04-01T15:12:14.814Z,60.12
2023-04-01T15:15:12.538Z,60.04
2023-04-01T15:17:50.246Z,59.95
2023-04-01T15:20:49.781Z,60.07
2023-04-01T15:23:36.220Z,59.98
2023-04-01T15:26:18.220Z,60.12
2023-04-01T15:28:58.881Z,60.22
2023-04-01T15:31:31.585Z,60.12
2023-04-01T15:34:28.292Z,60.30
2023-04-01T15:37:02.993Z,60.20
2023-04-01T15:39:44.780Z,59.89
2023-04-01T15:42:38.017Z,60.24
2023-04-01T15:45:26.229Z,60.23
2023-04-01T15:48:01.555Z,60.30
2023-04-01T15:50:53.924Z,60.09
2023-04-01T15:53:58.546Z,60.45
2023-04-01T15:56:45.737Z,60.28
2023-04-01T15:59:28.716Z,60.58
2023-04-01T16:02:04.290Z,60.28
2023-04-01T16:04:53.383Z,60.35
2023-04-01T16:07:39.593Z,60.29
2023-04-01T16:10:19.536Z,60.12
2023-04-01T16:13:03.781Z,60.33
2023-04-01T16:15:41.632Z,60.20
2023-04-01T16:18:30.926Z,60.82
2023-04-01T16:21:03.270Z,60.42
2023-04-01T16:23:38.256Z,60.44
2023-04-01T16:26:11.843Z,60.49
2023-04-01T16:28:46.922Z,60.49
2023-04-01T16:31:27.769Z,60.52
2023-04-01T16:34:03.972Z,60.24
2023-04-01T16:36:38.189Z,60.73
2023-04-01T16:39:30.625Z,60.49
2023-04-01T16:42:18.434Z,60.47
2023-04-01T16:44:52.698Z,60.58
2023-04-01T16:47:29.112Z,60.63
2023-04-01T16:50:01.625Z,60.57
2023-04-01T16:52:44.262Z,60.86
2023-04-01T16:55:18.650Z,60.58
2023-04-01T16:57:52.466Z,60.47
2023-04-01T17:00:28.090Z,60.66
2023-04-01T17:03:06.853Z,60.63
2023-04-01T17:05:53.170Z,60.74
2023-04-01T17:08:36.752Z,60.48
2023-04-01T17:11:11.086Z,60.85
2023-04-01T17:13:48.025Z,60.86
2023-04-01T17:16:29.911Z,60.66
2023-04-01T17:19:06.088Z,60.91
2023-04-01T17:21:48.756Z,60.79
2023-04-01T17:24:31.518Z,60.63
2023-04-01T17:27:07.873Z,60.74
2023-04-01T17:29:57.253Z,60.60
2023-04-01T17:32:42.638Z,60.97
2023-04-01T17:35:18.527Z,60.81
2023-04-01T17:38:01.894Z,61.00
2023-04-01T17:40:42.497Z,60.78
2023-04-01T17:43:22.466Z,61.00
2023-04-01T17:45:55.460Z,61.00
2023-04-01T17:48:35.363Z,60.82
2023-04-01T17:51:23.060Z,60.95
2023-04-01T17:54:00.706Z,60.89
2023-04-01T17:56:42.605Z,60.91
2023-04-01T17:59:20.466Z,60.94
2023-04-01T18:01:57.677Z,60.87
2023-04-01T18:05:21.512Z,61.10
2023-04-01T18:08:40.574Z,61.13
2023-04-01T18:11:40.647Z,60.96
2023-04-01T18:22:39.301Z,61.21
2023-04-01T18:25:46.273Z,60.87
2023-04-01T20:18:33.761Z,61.52
2023-04-01T20:21:05.567Z,61.46
2023-04-01T20:23:42.781Z,61.26
2023-04-01T20:26:12.423Z,61.41
2023-04-01T20:28:46.539Z,61.49
2023-04-01T20:31:27.065Z,61.50
2023-04-01T20:34:33.149Z,61.63
2023-04-01T20:37:14.746Z,61.40
2023-04-01T20:40:05.179Z,61.27
2023-04-01T20:42:48.271Z,61.50
2023-04-01T20:45:30.953Z,61.65
2023-04-01T20:48:13.752Z,61.34
2023-04-01T20:50:51.864Z,61.57
2023-04-01T20:53:24.962Z,61.06
2023-04-01T20:56:06.211Z,61.33
2023-04-01T20:58:43.813Z,61.67
2023-04-01T21:01:22.886Z,61.64
2023-04-01T21:04:03.302Z,61.77
2023-04-01T21:06:54.637Z,61.94
2023-04-01T21:09:37.272Z,61.40
2023-04-01T21:12:22.510Z,61.65
2023-04-01T21:15:28.614Z,61.40
2023-04-01T21:18:12.271Z,61.45
2023-04-01T21:20:59.009Z,61.56
2023-04-01T21:23:44.026Z,61.43
2023-04-01T21:26:28.930Z,61.81
2023-04-01T21:29:27.926Z,61.78
2023-04-01T21:32:17.468Z,61.48
2023-04-01T21:34:52.707Z,61.68
2023-04-01T21:37:47.348Z,61.55
2023-04-01T21:40:34.501Z,61.65
2023-04-01T21:43:11.247Z,61.65
2023-04-01T21:45:54.094Z,61.70
2023-04-01T21:48:49.524Z,61.56
2023-04-01T21:51:38.548Z,61.94
2023-04-01T21:54:48.963Z,61.69
2023-04-01T21:57:42.070Z,61.61
2023-04-01T22:00:19.408Z,61.67
2023-04-01T22:03:10.390Z,61.81
2023-04-01T22:05:50.139Z,61.95
2023-04-01T22:08:36.384Z,62.04
2023-04-01T22:11:11.796Z,62.01
2023-04-01T22:13:50.342Z,62.19
2023-04-01T22:16:26.632Z,61.62
2023-04-01T22:19:04.730Z,61.82
2023-04-01T22:21:42.207Z,62.09
2023-04-01T22:24:18.942Z,61.92
2023-04-01T22:26:52.625Z,61.88
2023-04-01T22:29:27.409Z,62.08
2023-04-01T22:32:00.468Z,61.83
2023-04-01T22:34:39.107Z,61.88
2023-04-01T22:37:18.177Z,61.96
2023-04-01T22:40:16.583Z,61.66
2023-04-01T22:42:46.560Z,61.81
2023-04-01T22:45:45.067Z,61.96
2023-04-01T22:48:20.351Z,61.94
2023-04-01T22:50:54.991Z,61.97
2023-04-01T22:53:38.397Z,61.96
2023-04-01T22:56:11.960Z,61.76
2023-04-01T22:58:44.526Z,61.90
2023-04-01T23:01:17.881Z,62.07
2023-04-01T23:03:48.997Z,61.86
2023-04-01T23:09:08.912Z,61.81
2023-04-01T23:11:43.009Z,62.09
2023-04-01T23:14:38.974Z,62.08
2023-04-01T23:17:22.785Z,62.09
2023-04-01T23:19:56.495Z,61.99
2023-04-01T23:22:32.320Z,62.14
2023-04-01T23:25:17.977Z,62.34
2023-04-01T23:27:49.473Z,62.17
2023-04-01T23:30:52.361Z,61.82
2023-04-01T23:33:28.470Z,62.32
2023-04-01T23:36:05.925Z,62.06
2023-04-01T23:38:36.468Z,62.23
2023-04-01T23:41:07.762Z,62.12
2023-04-01T23:43:39.932Z,62.04
2023-04-01T23:46:09.459Z,62.11
2023-04-01T23:48:39.514Z,62.21
2023-04-01T23:51:15.373Z,62.09
2023-04-01T23:53:46.444Z,62.31
2023-04-01T23:56:18.033Z,62.20
2023-04-01T23:58:50.222Z,62.21
